Time,TemperatureF,DewpointF,PressureIn,WindDirection,WindDirectionDegrees,WindSpeedMPH,WindSpeedGustMPH,Humidity,HourlyPrecipIn,Conditions,Clouds,dailyrainin,SoftwareType,DateUTC
2013-03-27 00:00:00,34.3,23.7,30.50,WSW,248,0.0,0.0,65,0.00,,,0.00,WUHU216HW,2013-03-27 04:00:00,
2013-03-27 00:05:00,34.3,23.7,30.49,WSW,248,0.0,0.0,65,0.00,,,0.00,WUHU216HW,2013-03-27 04:05:00,
2013-03-27 00:10:00,34.3,23.7,30.49,WSW,248,0.0,2.0,65,0.00,,,0.00,WUHU216HW,2013-03-27 04:10:00,
2013-03-27 00:15:00,34.3,23.7,30.49,WSW,248,0.0,2.0,65,0.00,,,0.00,WUHU216HW,2013-03-27 04:15:00,
2013-03-27 00:20:00,34.3,23.7,30.49,West,270,0.0,0.0,65,0.00,,,0.00,WUHU216HW,2013-03-27 04:20:00,
2013-03-27 00:25:00,34.1,23.5,30.49,West,270,0.0,0.0,65,0.00,,,0.00,WUHU216HW,2013-03-27 04:25:00,
2013-03-27 00:30:00,34.1,23.5,30.50,West,270,0.0,0.0,65,0.00,,,0.00,WUHU216HW,2013-03-27 04:30:00,
2013-03-27 00:35:00,33.9,23.3,30.50,West,270,0.0,0.0,65,0.00,,,0.00,WUHU216HW,2013-03-27 04:35:00,
2013-03-27 00:40:00,33.8,23.1,30.49,West,270,0.0,0.0,65,0.00,,,0.00,WUHU216HW,2013-03-27 04:40:00,
2013-03-27 00:45:00,33.6,23.3,30.50,WSW,248,0.0,0.0,66,0.00,,,0.00,WUHU216HW,2013-03-27 04:45:00,
2013-03-27 00:50:00,33.6,23.3,30.50,WSW,248,0.0,0.0,66,0.00,,,0.00,WUHU216HW,2013-03-27 04:50:00,
2013-03-27 00:55:00,33.6,23.3,30.50,WSW,248,0.0,0.0,66,0.00,,,0.00,WUHU216HW,2013-03-27 04:55:00,
2013-03-27 01:00:00,33.4,23.2,30.49,WSW,248,0.0,0.0,66,0.00,,,0.00,WUHU216HW,2013-03-27 05:00:00,
2013-03-27 01:05:00,33.4,23.2,30.49,WSW,248,0.0,0.0,66,0.00,,,0.00,WUHU216HW,2013-03-27 05:05:00,
2013-03-27 01:10:00,33.2,23.0,30.49,WSW,248,0.0,0.0,66,0.00,,,0.00,WUHU216HW,2013-03-27 05:10:00,
2013-03-27 01:15:00,33.0,22.8,30.49,WSW,248,0.0,0.0,66,0.00,,,0.00,WUHU216HW,2013-03-27 05:15:00,
2013-03-27 01:20:00,32.9,22.7,30.49,WSW,248,0.0,0.0,66,0.00,,,0.00,WUHU216HW,2013-03-27 05:20:00,
2013-03-27 01:25:00,32.7,22.5,30.50,WSW,248,0.0,0.0,66,0.00,,,0.00,WUHU216HW,2013-03-27 05:25:00,
2013-03-27 01:30:00,32.7,22.5,30.50,WSW,248,0.0,0.0,66,0.00,,,0.00,WUHU216HW,2013-03-27 05:30:00,
2013-03-27 01:35:00,32.7,22.5,30.50,WSW,248,0.0,0.0,66,0.00,,,0.00,WUHU216HW,2013-03-27 05:35:00,
2013-03-27 01:40:00,32.5,22.7,30.50,SW,225,0.0,0.0,67,0.00,,,0.00,WUHU216HW,2013-03-27 05:40:00,
2013-03-27 01:45:00,32.3,22.6,30.49,SW,225,0.0,0.0,67,0.00,,,0.00,WUHU216HW,2013-03-27 05:45:00,
2013-03-27 01:50:00,32.3,22.6,30.49,SW,225,0.0,0.0,67,0.00,,,0.00,WUHU216HW,2013-03-27 05:50:00,
2013-03-27 01:55:00,32.1,22.4,30.49,SW,225,0.0,0.0,67,0.00,,,0.00,WUHU216HW,2013-03-27 05:55:00,
2013-03-27 02:00:00,32.1,22.4,30.49,SW,225,0.0,0.0,67,0.00,,,0.00,WUHU216HW,2013-03-27 06:00:00,
2013-03-27 02:05:00,32.1,22.4,30.49,WSW,248,0.0,1.3,67,0.00,,,0.00,WUHU216HW,2013-03-27 06:05:00,
2013-03-27 02:10:00,31.8,22.1,30.49,SW,225,0.0,1.3,67,0.00,,,0.00,WUHU216HW,2013-03-27 06:10:00,
2013-03-27 02:15:00,31.8,22.1,30.49,SW,225,0.8,0.8,67,0.00,,,0.00,WUHU216HW,2013-03-27 06:15:00,
2013-03-27 02:20:00,31.8,22.4,30.49,WSW,248,0.0,0.8,68,0.00,,,0.00,WUHU216HW,2013-03-27 06:20:00,
2013-03-27 02:25:00,31.8,22.4,30.49,WSW,248,0.8,0.8,68,0.00,,,0.00,WUHU216HW,2013-03-27 06:25:00,
2013-03-27 02:30:00,31.8,22.4,30.49,WSW,248,0.0,0.8,68,0.00,,,0.00,WUHU216HW,2013-03-27 06:30:00,
2013-03-27 02:35:00,31.6,22.2,30.49,WSW,248,0.0,0.8,68,0.00,,,0.00,WUHU216HW,2013-03-27 06:35:00,
2013-03-27 02:40:00,31.6,22.2,30.49,SW,225,0.6,0.6,68,0.00,,,0.00,WUHU216HW,2013-03-27 06:40:00,
2013-03-27 02:45:00,31.6,22.2,30.49,WSW,248,0.0,0.6,68,0.00,,,0.00,WUHU216HW,2013-03-27 06:45:00,
2013-03-27 02:50:00,31.6,22.2,30.48,WSW,248,0.0,0.6,68,0.00,,,0.00,WUHU216HW,2013-03-27 06:50:00,
2013-03-27 02:55:00,31.2,22.2,30.48,WSW,248,0.0,0.0,69,0.00,,,0.00,WUHU216HW,2013-03-27 06:55:00,
2013-03-27 03:00:00,31.2,22.2,30.48,SW,225,0.0,0.0,69,0.00,,,0.00,WUHU216HW,2013-03-27 07:00:00,
2013-03-27 03:05:00,31.2,22.2,30.48,WSW,248,0.0,0.0,69,0.00,,,0.00,WUHU216HW,2013-03-27 07:05:00,
2013-03-27 03:10:00,31.2,22.2,30.48,WSW,248,0.0,0.0,69,0.00,,,0.00,WUHU216HW,2013-03-27 07:10:00,
2013-03-27 03:15:00,31.2,22.2,30.49,WSW,248,0.0,3.1,69,0.00,,,0.00,WUHU216HW,2013-03-27 07:15:00,
2013-03-27 03:20:00,31.1,22.1,30.48,WSW,248,0.0,3.1,69,0.00,,,0.00,WUHU216HW,2013-03-27 07:20:00,
2013-03-27 03:25:00,30.9,21.9,30.48,WSW,248,1.1,1.5,69,0.00,,,0.00,WUHU216HW,2013-03-27 07:25:00,
2013-03-27 03:30:00,30.9,21.9,30.48,WSW,248,0.0,1.5,69,0.00,,,0.00,WUHU216HW,2013-03-27 07:30:00,
2013-03-27 03:35:00,30.9,21.9,30.48,SW,225,0.6,1.1,69,0.00,,,0.00,WUHU216HW,2013-03-27 07:35:00,
2013-03-27 03:40:00,30.7,21.7,30.48,WSW,248,0.0,0.6,69,0.00,,,0.00,WUHU216HW,2013-03-27 07:40:00,
2013-03-27 03:45:00,30.7,21.7,30.48,SW,225,1.5,1.5,69,0.00,,,0.00,WUHU216HW,2013-03-27 07:45:00,
2013-03-27 03:50:00,30.7,22.1,30.48,SW,225,0.0,1.5,70,0.00,,,0.00,WUHU216HW,2013-03-27 07:50:00,
2013-03-27 03:55:00,30.7,22.1,30.48,SW,225,0.0,1.5,70,0.00,,,0.00,WUHU216HW,2013-03-27 07:55:00,
2013-03-27 04:00:00,30.5,21.9,30.48,WSW,248,0.0,0.0,70,0.00,,,0.00,WUHU216HW,2013-03-27 08:00:00,
2013-03-27 04:05:00,30.5,21.9,30.48,WSW,248,0.0,0.0,70,0.00,,,0.00,WUHU216HW,2013-03-27 08:05:00,
2013-03-27 04:10:00,30.5,21.9,30.48,SW,225,1.7,1.7,70,0.00,,,0.00,WUHU216HW,2013-03-27 08:10:00,
2013-03-27 04:15:00,30.3,21.7,30.48,WSW,248,0.2,2.9,70,0.00,,,0.00,WUHU216HW,2013-03-27 08:15:00,
2013-03-27 04:20:00,30.3,21.7,30.48,SW,225,0.0,2.9,70,0.00,,,0.00,WUHU216HW,2013-03-27 08:20:00,
2013-03-27 04:25:00,30.3,22.0,30.48,WSW,248,1.3,1.3,71,0.00,,,0.00,WUHU216HW,2013-03-27 08:25:00,
2013-03-27 04:30:00,30.3,22.0,30.48,WSW,248,0.0,1.3,71,0.00,,,0.00,WUHU216HW,2013-03-27 08:30:00,
2013-03-27 04:35:00,30.3,22.0,30.48,SW,225,3.8,3.8,71,0.00,,,0.00,WUHU216HW,2013-03-27 08:35:00,
2013-03-27 04:40:00,30.3,22.0,30.48,WSW,248,1.1,3.8,71,0.00,,,0.00,WUHU216HW,2013-03-27 08:40:00,
2013-03-27 04:45:00,30.5,22.2,30.48,WSW,248,0.0,3.8,71,0.00,,,0.00,WUHU216HW,2013-03-27 08:45:00,
2013-03-27 04:50:00,30.5,22.2,30.48,SW,225,0.0,0.0,71,0.00,,,0.00,WUHU216HW,2013-03-27 08:50:00,
2013-03-27 04:55:00,30.5,22.2,30.48,WSW,248,0.0,0.0,71,0.00,,,0.00,WUHU216HW,2013-03-27 08:55:00,
2013-03-27 05:00:00,30.5,22.2,30.48,WSW,248,0.0,0.0,71,0.00,,,0.00,WUHU216HW,2013-03-27 09:00:00,
2013-03-27 05:05:00,30.7,22.4,30.49,WSW,248,0.0,0.0,71,0.00,,,0.00,WUHU216HW,2013-03-27 09:05:00,
2013-03-27 05:10:00,30.7,22.7,30.49,WSW,248,0.0,0.0,72,0.00,,,0.00,WUHU216HW,2013-03-27 09:10:00,
2013-03-27 05:15:00,30.7,22.7,30.49,WSW,248,0.0,0.0,72,0.00,,,0.00,WUHU216HW,2013-03-27 09:15:00,
2013-03-27 05:20:00,30.7,22.7,30.49,WSW,248,0.0,0.0,72,0.00,,,0.00,WUHU216HW,2013-03-27 09:20:00,
2013-03-27 05:25:00,30.7,22.7,30.49,WSW,248,0.0,0.8,72,0.00,,,0.00,WUHU216HW,2013-03-27 09:25:00,
2013-03-27 05:30:00,30.7,22.7,30.49,WSW,248,0.0,0.8,72,0.00,,,0.00,WUHU216HW,2013-03-27 09:30:00,
2013-03-27 05:35:00,30.7,22.7,30.49,WSW,248,0.0,0.0,72,0.00,,,0.00,WUHU216HW,2013-03-27 09:35:00,
2013-03-27 05:40:00,30.7,22.7,30.49,WSW,248,0.0,0.0,72,0.00,,,0.00,WUHU216HW,2013-03-27 09:40:00,
2013-03-27 05:45:00,30.7,22.7,30.49,WSW,248,0.0,0.0,72,0.00,,,0.00,WUHU216HW,2013-03-27 09:45:00,
2013-03-27 05:50:00,30.7,23.0,30.49,WSW,248,0.0,0.0,73,0.00,,,0.00,WUHU216HW,2013-03-27 09:50:00,
2013-03-27 05:55:00,30.7,23.0,30.49,WSW,248,0.0,0.0,73,0.00,,,0.00,WUHU216HW,2013-03-27 09:55:00,
2013-03-27 06:00:00,30.7,23.0,30.50,WSW,248,0.0,0.0,73,0.00,,,0.00,WUHU216HW,2013-03-27 10:00:00,
2013-03-27 06:05:00,30.5,22.8,30.50,WSW,248,0.0,0.0,73,0.00,,,0.00,WUHU216HW,2013-03-27 10:05:00,
2013-03-27 06:10:00,30.3,22.7,30.50,WSW,248,0.0,0.0,73,0.00,,,0.00,WUHU216HW,2013-03-27 10:10:00,
2013-03-27 06:15:00,30.3,22.7,30.50,WSW,248,0.0,0.0,73,0.00,,,0.00,WUHU216HW,2013-03-27 10:15:00,
2013-03-27 06:20:00,30.3,22.7,30.50,WSW,248,0.0,0.0,73,0.00,,,0.00,WUHU216HW,2013-03-27 10:20:00,
2013-03-27 06:25:00,30.2,22.5,30.50,WSW,248,0.0,0.0,73,0.00,,,0.00,WUHU216HW,2013-03-27 10:25:00,
2013-03-27 06:30:00,30.0,22.3,30.51,WSW,248,0.0,0.0,73,0.00,,,0.00,WUHU216HW,2013-03-27 10:30:00,
2013-03-27 06:35:00,30.0,22.3,30.51,WSW,248,0.0,0.0,73,0.00,,,0.00,WUHU216HW,2013-03-27 10:35:00,
2013-03-27 06:40:00,30.0,22.3,30.50,WSW,248,0.0,0.0,73,0.00,,,0.00,WUHU216HW,2013-03-27 10:40:00,
2013-03-27 06:45:00,30.0,22.3,30.50,SW,225,0.0,0.0,73,0.00,,,0.00,WUHU216HW,2013-03-27 10:45:00,
2013-03-27 06:50:00,30.0,22.3,30.50,SW,225,0.0,0.0,73,0.00,,,0.00,WUHU216HW,2013-03-27 10:50:00,
2013-03-27 06:55:00,30.0,22.6,30.50,SW,225,0.0,0.0,74,0.00,,,0.00,WUHU216HW,2013-03-27 10:55:00,
2013-03-27 07:00:00,29.8,22.5,30.50,SW,225,0.0,0.0,74,0.00,,,0.00,WUHU216HW,2013-03-27 11:00:00,
2013-03-27 07:05:00,30.0,22.6,30.51,SW,225,0.0,0.0,74,0.00,,,0.00,WUHU216HW,2013-03-27 11:05:00,
2013-03-27 07:10:00,30.0,22.6,30.51,SW,225,0.0,0.0,74,0.00,,,0.00,WUHU216HW,2013-03-27 11:10:00,
2013-03-27 07:15:00,30.0,22.6,30.50,SW,225,0.0,0.0,74,0.00,,,0.00,WUHU216HW,2013-03-27 11:15:00,
2013-03-27 07:20:00,30.0,22.6,30.50,SW,225,0.0,0.0,74,0.00,,,0.00,WUHU216HW,2013-03-27 11:20:00,
2013-03-27 07:25:00,30.0,22.6,30.50,SW,225,0.0,0.0,74,0.00,,,0.00,WUHU216HW,2013-03-27 11:25:00,
2013-03-27 07:30:00,29.8,22.5,30.50,SW,225,0.0,0.0,74,0.00,,,0.00,WUHU216HW,2013-03-27 11:30:00,
2013-03-27 07:35:00,30.0,22.6,30.51,SW,225,0.0,0.0,74,0.00,,,0.00,WUHU216HW,2013-03-27 11:35:00,
2013-03-27 07:40:00,30.0,22.6,30.51,WSW,248,0.0,1.1,74,0.00,,,0.00,WUHU216HW,2013-03-27 11:40:00,
2013-03-27 07:45:00,30.0,22.6,30.51,WSW,248,0.0,1.1,74,0.00,,,0.00,WUHU216HW,2013-03-27 11:45:00,
2013-03-27 07:50:00,30.0,22.6,30.51,WSW,248,0.0,0.0,74,0.00,,,0.00,WUHU216HW,2013-03-27 11:50:00,
2013-03-27 07:55:00,30.0,22.6,30.51,SW,225,0.0,0.0,74,0.00,,,0.00,WUHU216HW,2013-03-27 11:55:00,
2013-03-27 08:00:00,30.0,22.6,30.52,SW,225,0.0,0.0,74,0.00,,,0.00,WUHU216HW,2013-03-27 12:00:00,
2013-03-27 08:05:00,30.0,22.6,30.52,SW,225,0.0,0.0,74,0.00,,,0.00,WUHU216HW,2013-03-27 12:05:00,
2013-03-27 08:10:00,30.0,22.6,30.52,SW,225,0.0,2.0,74,0.00,,,0.00,WUHU216HW,2013-03-27 12:10:00,
2013-03-27 08:15:00,30.0,22.6,30.52,SW,225,0.0,2.0,74,0.00,,,0.00,WUHU216HW,2013-03-27 12:15:00,
2013-03-27 08:20:00,30.0,22.6,30.52,WSW,248,1.3,1.3,74,0.00,,,0.00,WUHU216HW,2013-03-27 12:20:00,
2013-03-27 08:25:00,30.2,23.1,30.52,WSW,248,0.0,1.3,75,0.00,,,0.00,WUHU216HW,2013-03-27 12:25:00,
2013-03-27 08:30:00,30.0,22.6,30.52,SW,225,0.0,0.0,74,0.00,,,0.00,WUHU216HW,2013-03-27 12:30:00,
2013-03-27 08:35:00,30.2,23.1,30.52,SSW,203,0.0,0.0,75,0.00,,,0.00,WUHU216HW,2013-03-27 12:35:00,
2013-03-27 08:40:00,30.3,23.3,30.52,WSW,248,0.0,2.4,75,0.00,,,0.00,WUHU216HW,2013-03-27 12:40:00,
2013-03-27 08:45:00,30.5,23.5,30.52,SW,225,3.5,3.5,75,0.00,,,0.00,WUHU216HW,2013-03-27 12:45:00,
2013-03-27 08:50:00,30.7,23.7,30.53,WSW,248,0.0,3.5,75,0.00,,,0.00,WUHU216HW,2013-03-27 12:50:00,
2013-03-27 08:55:00,31.1,24.0,30.52,WSW,248,0.0,3.5,75,0.00,,,0.00,WUHU216HW,2013-03-27 12:55:00,
2013-03-27 09:00:00,31.2,24.2,30.53,SW,225,0.0,0.0,75,0.00,,,0.00,WUHU216HW,2013-03-27 13:00:00,
2013-03-27 09:05:00,31.6,24.6,30.53,WSW,248,0.0,0.0,75,0.00,,,0.00,WUHU216HW,2013-03-27 13:05:00,
2013-03-27 09:10:00,31.6,24.2,30.53,WSW,248,0.0,0.0,74,0.00,,,0.00,WUHU216HW,2013-03-27 13:10:00,
2013-03-27 09:15:00,31.8,24.4,30.53,WSW,248,0.0,0.0,74,0.00,,,0.00,WUHU216HW,2013-03-27 13:15:00,
2013-03-27 09:20:00,31.8,24.4,30.53,WNW,293,0.0,0.0,74,0.00,,,0.00,WUHU216HW,2013-03-27 13:20:00,
2013-03-27 09:25:00,32.1,24.8,30.53,SSW,203,0.0,0.0,74,0.00,,,0.00,WUHU216HW,2013-03-27 13:25:00,
2013-03-27 09:30:00,32.1,24.8,30.53,WSW,248,0.0,4.6,74,0.00,,,0.00,WUHU216HW,2013-03-27 13:30:00,
2013-03-27 09:35:00,32.3,24.9,30.52,WSW,248,0.0,4.6,74,0.00,,,0.00,WUHU216HW,2013-03-27 13:35:00,
2013-03-27 09:40:00,32.5,25.1,30.53,WSW,248,0.0,0.0,74,0.00,,,0.00,WUHU216HW,2013-03-27 13:40:00,
2013-03-27 09:45:00,32.7,25.3,30.53,WSW,248,1.1,1.1,74,0.00,,,0.00,WUHU216HW,2013-03-27 13:45:00,
2013-03-27 09:50:00,33.0,25.6,30.53,WSW,248,1.1,4.4,74,0.00,,,0.00,WUHU216HW,2013-03-27 13:50:00,
2013-03-27 09:55:00,33.6,25.7,30.53,WSW,248,0.0,4.4,73,0.00,,,0.00,WUHU216HW,2013-03-27 13:55:00,
2013-03-27 10:00:00,34.1,26.3,30.53,WSW,248,0.0,2.4,73,0.00,,,0.00,WUHU216HW,2013-03-27 14:00:00,
2013-03-27 10:05:00,34.3,26.4,30.53,SW,225,5.5,5.5,73,0.00,,,0.00,WUHU216HW,2013-03-27 14:05:00,
2013-03-27 10:10:00,34.5,26.3,30.53,WSW,248,0.0,6.2,72,0.00,,,0.00,WUHU216HW,2013-03-27 14:10:00,
2013-03-27 10:15:00,34.8,26.7,30.53,WSW,248,0.0,6.2,72,0.00,,,0.00,WUHU216HW,2013-03-27 14:15:00,
2013-03-27 10:20:00,35.2,26.7,30.53,WSW,248,7.6,7.6,71,0.00,,,0.00,WUHU216HW,2013-03-27 14:20:00,
2013-03-27 10:25:00,35.4,26.9,30.53,West,270,0.0,7.6,71,0.00,,,0.00,WUHU216HW,2013-03-27 14:25:00,
2013-03-27 10:30:00,35.7,27.2,30.53,West,270,0.0,5.1,71,0.00,,,0.00,WUHU216HW,2013-03-27 14:30:00,
2013-03-27 10:35:00,36.1,27.3,30.53,SSW,203,0.0,0.0,70,0.00,,,0.00,WUHU216HW,2013-03-27 14:35:00,
2013-03-27 10:40:00,36.3,27.5,30.53,SW,225,6.7,6.7,70,0.00,,,0.00,WUHU216HW,2013-03-27 14:40:00,
2013-03-27 10:45:00,36.3,27.5,30.53,SW,225,7.6,7.6,70,0.00,,,0.00,WUHU216HW,2013-03-27 14:45:00,
2013-03-27 10:50:00,36.3,27.5,30.53,SW,225,4.0,7.6,70,0.00,,,0.00,WUHU216HW,2013-03-27 14:50:00,
2013-03-27 10:55:00,36.6,27.4,30.53,SW,225,5.5,6.9,69,0.00,,,0.00,WUHU216HW,2013-03-27 14:55:00,
2013-03-27 11:00:00,37.0,27.8,30.53,WSW,248,6.0,6.0,69,0.00,,,0.00,WUHU216HW,2013-03-27 15:00:00,
2013-03-27 11:05:00,37.0,27.8,30.53,WSW,248,1.1,6.0,69,0.00,,,0.00,WUHU216HW,2013-03-27 15:05:00,
2013-03-27 11:10:00,37.5,27.9,30.53,WSW,248,0.0,4.6,68,0.00,,,0.00,WUHU216HW,2013-03-27 15:10:00,
2013-03-27 11:15:00,37.7,28.1,30.53,SW,225,2.4,4.4,68,0.00,,,0.00,WUHU216HW,2013-03-27 15:15:00,
2013-03-27 11:20:00,37.9,28.3,30.53,West,270,0.0,2.4,68,0.00,,,0.00,WUHU216HW,2013-03-27 15:20:00,
2013-03-27 11:25:00,38.3,28.2,30.53,WSW,248,3.3,7.8,67,0.00,,,0.00,WUHU216HW,2013-03-27 15:25:00,
2013-03-27 11:30:00,38.4,28.0,30.53,West,270,0.0,7.8,66,0.00,,,0.00,WUHU216HW,2013-03-27 15:30:00,
2013-03-27 11:35:00,38.8,28.3,30.53,NW,315,0.0,2.2,66,0.00,,,0.00,WUHU216HW,2013-03-27 15:35:00,
2013-03-27 11:40:00,39.0,28.5,30.53,WSW,248,2.9,2.9,66,0.00,,,0.00,WUHU216HW,2013-03-27 15:40:00,
2013-03-27 11:45:00,39.3,28.4,30.53,West,270,0.0,5.1,65,0.00,,,0.00,WUHU216HW,2013-03-27 15:45:00,
2013-03-27 11:50:00,39.9,29.0,30.53,SW,225,6.2,6.2,65,0.00,,,0.00,WUHU216HW,2013-03-27 15:50:00,
2013-03-27 11:55:00,40.8,29.9,30.53,WSW,248,0.0,6.2,65,0.00,,,0.00,WUHU216HW,2013-03-27 15:55:00,
2013-03-27 12:00:00,41.7,30.0,30.53,West,270,0.0,6.2,64,0.00,,,0.00,WUHU216HW,2013-03-27 16:00:00,
2013-03-27 12:05:00,42.0,30.3,30.53,SW,225,1.5,5.5,63,0.00,,,0.00,WUHU216HW,2013-03-27 16:05:00,
2013-03-27 12:10:00,42.6,30.0,30.53,SW,225,0.0,1.7,61,0.00,,,0.00,WUHU216HW,2013-03-27 16:10:00,
2013-03-27 12:15:00,43.1,30.5,30.53,West,270,0.0,6.4,61,0.00,,,0.00,WUHU216HW,2013-03-27 16:15:00,
2013-03-27 12:20:00,44.2,31.2,30.53,SW,225,5.5,6.4,60,0.00,,,0.00,WUHU216HW,2013-03-27 16:20:00,
2013-03-27 12:25:00,44.9,31.5,30.53,NW,315,0.0,5.5,59,0.00,,,0.00,WUHU216HW,2013-03-27 16:25:00,
2013-03-27 12:30:00,45.5,30.2,30.53,WNW,293,0.0,5.5,55,0.00,,,0.00,WUHU216HW,2013-03-27 16:30:00,
2013-03-27 12:35:00,45.6,30.8,30.53,WSW,248,0.0,0.0,56,0.00,,,0.00,WUHU216HW,2013-03-27 16:35:00,
2013-03-27 12:40:00,46.2,31.2,30.53,WNW,293,0.0,0.0,56,0.00,,,0.00,WUHU216HW,2013-03-27 16:40:00,
2013-03-27 12:45:00,46.9,31.6,30.53,NW,315,0.0,4.2,56,0.00,,,0.00,WUHU216HW,2013-03-27 16:45:00,
2013-03-27 12:50:00,47.1,31.2,30.53,NNW,338,0.0,4.2,54,0.00,,,0.00,WUHU216HW,2013-03-27 16:50:00,
2013-03-27 12:55:00,47.3,31.4,30.53,West,270,0.8,0.8,54,0.00,,,0.00,WUHU216HW,2013-03-27 16:55:00,
2013-03-27 13:00:00,47.4,31.1,30.53,WNW,293,0.0,0.8,53,0.00,,,0.00,WUHU216HW,2013-03-27 17:00:00,
2013-03-27 13:05:00,47.3,30.0,30.53,West,270,0.0,0.0,51,0.00,,,0.00,WUHU216HW,2013-03-27 17:05:00,
2013-03-27 13:10:00,47.1,30.3,30.52,WSW,248,6.4,6.4,52,0.00,,,0.00,WUHU216HW,2013-03-27 17:10:00,
2013-03-27 13:15:00,48.0,31.6,30.52,WSW,248,2.6,6.7,53,0.00,,,0.00,WUHU216HW,2013-03-27 17:15:00,
2013-03-27 13:20:00,48.2,31.6,30.52,WSW,248,5.3,6.7,53,0.00,,,0.00,WUHU216HW,2013-03-27 17:20:00,
2013-03-27 13:25:00,48.9,32.0,30.52,West,270,0.0,5.3,52,0.00,,,0.00,WUHU216HW,2013-03-27 17:25:00,
2013-03-27 13:30:00,49.2,31.9,30.52,SW,225,0.0,5.3,51,0.00,,,0.00,WUHU216HW,2013-03-27 17:30:00,
2013-03-27 13:35:00,49.6,32.2,30.52,North,0,0.0,3.5,51,0.00,,,0.00,WUHU216HW,2013-03-27 17:35:00,
2013-03-27 13:40:00,49.4,31.6,30.52,WSW,248,0.0,0.0,50,0.00,,,0.00,WUHU216HW,2013-03-27 17:40:00,
2013-03-27 13:45:00,49.1,31.2,30.51,WSW,248,2.6,3.1,50,0.00,,,0.00,WUHU216HW,2013-03-27 17:45:00,
2013-03-27 13:50:00,48.9,31.1,30.51,NW,315,0.0,3.1,50,0.00,,,0.00,WUHU216HW,2013-03-27 17:50:00,
2013-03-27 13:55:00,48.7,30.3,30.51,SW,225,0.6,2.6,49,0.00,,,0.00,WUHU216HW,2013-03-27 17:55:00,
2013-03-27 14:00:00,48.9,31.1,30.51,SW,225,5.8,5.8,50,0.00,,,0.00,WUHU216HW,2013-03-27 18:00:00,
2013-03-27 14:05:00,48.9,31.1,30.51,SW,225,6.4,6.4,50,0.00,,,0.00,WUHU216HW,2013-03-27 18:05:00,
2013-03-27 14:10:00,48.7,30.3,30.51,West,270,0.0,6.4,49,0.00,,,0.00,WUHU216HW,2013-03-27 18:10:00,
2013-03-27 14:15:00,48.7,30.3,30.51,WSW,248,2.4,6.4,49,0.00,,,0.00,WUHU216HW,2013-03-27 18:15:00,
2013-03-27 14:20:00,48.7,31.1,30.51,West,270,0.0,4.6,50,0.00,,,0.00,WUHU216HW,2013-03-27 18:20:00,
2013-03-27 14:25:00,49.1,31.2,30.51,WSW,248,5.1,5.1,50,0.00,,,0.00,WUHU216HW,2013-03-27 18:25:00,
2013-03-27 14:30:00,48.9,30.5,30.51,WSW,248,0.0,5.1,49,0.00,,,0.00,WUHU216HW,2013-03-27 18:30:00,
2013-03-27 14:35:00,48.3,30.0,30.51,West,270,0.0,5.1,49,0.00,,,0.00,WUHU216HW,2013-03-27 18:35:00,
2013-03-27 14:40:00,48.0,29.1,30.51,West,270,4.9,4.9,48,0.00,,,0.00,WUHU216HW,2013-03-27 18:40:00,
2013-03-27 14:45:00,47.8,28.9,30.51,North,0,2.6,4.9,48,0.00,,,0.00,WUHU216HW,2013-03-27 18:45:00,
2013-03-27 14:50:00,47.8,28.9,30.51,NNE,23,0.0,4.9,48,0.00,,,0.00,WUHU216HW,2013-03-27 18:50:00,
2013-03-27 14:55:00,47.6,28.8,30.51,NNW,338,0.0,0.0,48,0.00,,,0.00,WUHU216HW,2013-03-27 18:55:00,
2013-03-27 15:00:00,47.6,29.3,30.51,WSW,248,0.4,4.2,49,0.00,,,0.00,WUHU216HW,2013-03-27 19:00:00,
2013-03-27 15:05:00,48.2,29.6,30.50,West,270,0.0,4.6,49,0.00,,,0.00,WUHU216HW,2013-03-27 19:05:00,
2013-03-27 15:10:00,48.3,28.9,30.51,North,0,4.4,4.6,47,0.00,,,0.00,WUHU216HW,2013-03-27 19:10:00,
2013-03-27 15:15:00,48.2,29.3,30.50,WSW,248,6.7,6.7,48,0.00,,,0.00,WUHU216HW,2013-03-27 19:15:00,
2013-03-27 15:20:00,48.2,29.3,30.51,West,270,0.0,6.7,48,0.00,,,0.00,WUHU216HW,2013-03-27 19:20:00,
2013-03-27 15:25:00,48.0,29.1,30.51,SW,225,5.8,6.0,48,0.00,,,0.00,WUHU216HW,2013-03-27 19:25:00,
2013-03-27 15:30:00,48.2,29.3,30.50,WSW,248,1.3,5.8,48,0.00,,,0.00,WUHU216HW,2013-03-27 19:30:00,
2013-03-27 15:35:00,48.5,29.6,30.50,NW,315,0.0,5.8,48,0.00,,,0.00,WUHU216HW,2013-03-27 19:35:00,
2013-03-27 15:40:00,48.5,29.6,30.50,West,270,0.0,0.0,48,0.00,,,0.00,WUHU216HW,2013-03-27 19:40:00,
2013-03-27 15:45:00,48.5,29.6,30.50,SW,225,6.2,6.2,48,0.00,,,0.00,WUHU216HW,2013-03-27 19:45:00,
2013-03-27 15:50:00,48.3,29.4,30.50,NNW,338,0.0,6.2,48,0.00,,,0.00,WUHU216HW,2013-03-27 19:50:00,
2013-03-27 15:55:00,48.0,28.5,30.50,West,270,0.0,7.1,47,0.00,,,0.00,WUHU216HW,2013-03-27 19:55:00,
2013-03-27 16:00:00,48.0,29.1,30.50,West,270,0.0,7.1,48,0.00,,,0.00,WUHU216HW,2013-03-27 20:00:00,
2013-03-27 16:05:00,48.0,29.1,30.50,NNW,338,0.0,5.5,48,0.00,,,0.00,WUHU216HW,2013-03-27 20:05:00,
2013-03-27 16:10:00,47.8,28.4,30.50,WSW,248,0.0,5.5,47,0.00,,,0.00,WUHU216HW,2013-03-27 20:10:00,
2013-03-27 16:15:00,48.0,28.5,30.50,West,270,0.0,1.3,47,0.00,,,0.00,WUHU216HW,2013-03-27 20:15:00,
2013-03-27 16:20:00,47.8,28.4,30.50,West,270,0.0,5.8,47,0.00,,,0.00,WUHU216HW,2013-03-27 20:20:00,
2013-03-27 16:25:00,47.3,27.9,30.50,WSW,248,2.0,5.8,47,0.00,,,0.00,WUHU216HW,2013-03-27 20:25:00,
2013-03-27 16:30:00,47.1,28.3,30.50,WSW,248,1.5,3.8,48,0.00,,,0.00,WUHU216HW,2013-03-27 20:30:00,
2013-03-27 16:35:00,46.7,27.8,30.50,North,0,0.0,2.0,48,0.00,,,0.00,WUHU216HW,2013-03-27 20:35:00,
2013-03-27 16:40:00,46.5,27.8,30.50,North,0,0.0,0.0,48,0.00,,,0.00,WUHU216HW,2013-03-27 20:40:00,
2013-03-27 16:45:00,46.2,27.5,30.50,NW,315,0.0,1.5,48,0.00,,,0.00,WUHU216HW,2013-03-27 20:45:00,
2013-03-27 16:50:00,46.2,28.0,30.50,WSW,248,5.3,5.3,49,0.00,,,0.00,WUHU216HW,2013-03-27 20:50:00,
2013-03-27 16:55:00,46.0,27.8,30.50,West,270,0.0,5.8,49,0.00,,,0.00,WUHU216HW,2013-03-27 20:55:00,
2013-03-27 17:00:00,46.0,27.8,30.50,West,270,0.0,5.8,49,0.00,,,0.00,WUHU216HW,2013-03-27 21:00:00,
2013-03-27 17:05:00,46.5,28.3,30.50,WSW,248,6.0,7.1,49,0.00,,,0.00,WUHU216HW,2013-03-27 21:05:00,
2013-03-27 17:10:00,46.7,28.5,30.50,SW,225,3.3,7.1,49,0.00,,,0.00,WUHU216HW,2013-03-27 21:10:00,
2013-03-27 17:15:00,46.5,28.3,30.50,WSW,248,1.7,6.0,49,0.00,,,0.00,WUHU216HW,2013-03-27 21:15:00,
2013-03-27 17:20:00,46.5,28.3,30.50,SSW,203,2.9,3.8,49,0.00,,,0.00,WUHU216HW,2013-03-27 21:20:00,
2013-03-27 17:25:00,46.5,28.3,30.50,WSW,248,0.0,3.1,49,0.00,,,0.00,WUHU216HW,2013-03-27 21:25:00,
2013-03-27 17:30:00,46.7,28.5,30.51,West,270,0.0,2.9,49,0.00,,,0.00,WUHU216HW,2013-03-27 21:30:00,
2013-03-27 17:35:00,46.7,28.5,30.50,WSW,248,0.0,0.0,49,0.00,,,0.00,WUHU216HW,2013-03-27 21:35:00,
2013-03-27 17:40:00,46.9,28.7,30.50,West,270,0.0,9.1,49,0.00,,,0.00,WUHU216HW,2013-03-27 21:40:00,
2013-03-27 17:45:00,46.9,28.7,30.50,West,270,5.3,9.1,49,0.00,,,0.00,WUHU216HW,2013-03-27 21:45:00,
2013-03-27 17:50:00,46.2,28.0,30.51,WSW,248,0.0,5.8,49,0.00,,,0.00,WUHU216HW,2013-03-27 21:50:00,
2013-03-27 17:55:00,46.0,27.8,30.51,NNW,338,0.0,5.8,49,0.00,,,0.00,WUHU216HW,2013-03-27 21:55:00,
2013-03-27 18:00:00,46.0,27.8,30.51,SW,225,4.0,4.0,49,0.00,,,0.00,WUHU216HW,2013-03-27 22:00:00,
2013-03-27 18:05:00,46.0,28.4,30.51,WNW,293,0.0,4.0,50,0.00,,,0.00,WUHU216HW,2013-03-27 22:05:00,
2013-03-27 18:10:00,46.0,28.4,30.51,West,270,1.7,4.0,50,0.00,,,0.00,WUHU216HW,2013-03-27 22:10:00,
2013-03-27 18:15:00,45.8,27.7,30.52,NNW,338,0.0,1.7,49,0.00,,,0.00,WUHU216HW,2013-03-27 22:15:00,
2013-03-27 18:20:00,45.6,27.5,30.51,WSW,248,0.0,0.6,49,0.00,,,0.00,WUHU216HW,2013-03-27 22:20:00,
2013-03-27 18:25:00,45.5,27.9,30.52,West,270,0.0,0.0,50,0.00,,,0.00,WUHU216HW,2013-03-27 22:25:00,
2013-03-27 18:30:00,45.3,27.7,30.52,West,270,0.0,4.2,50,0.00,,,0.00,WUHU216HW,2013-03-27 22:30:00,
2013-03-27 18:35:00,44.9,27.9,30.52,West,270,0.0,4.2,51,0.00,,,0.00,WUHU216HW,2013-03-27 22:35:00,
2013-03-27 18:40:00,44.9,27.9,30.52,WNW,293,0.0,1.3,51,0.00,,,0.00,WUHU216HW,2013-03-27 22:40:00,
2013-03-27 18:45:00,44.6,27.5,30.52,West,270,0.0,1.3,51,0.00,,,0.00,WUHU216HW,2013-03-27 22:45:00,
2013-03-27 18:50:00,44.4,27.4,30.52,West,270,0.8,6.9,51,0.00,,,0.00,WUHU216HW,2013-03-27 22:50:00,
2013-03-27 18:55:00,44.4,27.4,30.52,WSW,248,0.0,6.9,51,0.00,,,0.00,WUHU216HW,2013-03-27 22:55:00,
2013-03-27 19:00:00,44.2,27.2,30.53,West,270,0.0,1.3,51,0.00,,,0.00,WUHU216HW,2013-03-27 23:00:00,
2013-03-27 19:05:00,44.0,27.0,30.52,NNW,338,0.0,1.3,51,0.00,,,0.00,WUHU216HW,2013-03-27 23:05:00,
2013-03-27 19:10:00,43.8,27.3,30.53,North,0,0.0,0.0,52,0.00,,,0.00,WUHU216HW,2013-03-27 23:10:00,
2013-03-27 19:15:00,43.5,27.0,30.53,WNW,293,0.0,0.0,52,0.00,,,0.00,WUHU216HW,2013-03-27 23:15:00,
2013-03-27 19:20:00,43.3,26.8,30.53,WSW,248,0.0,4.9,52,0.00,,,0.00,WUHU216HW,2013-03-27 23:20:00,
2013-03-27 19:25:00,43.1,26.7,30.52,West,270,0.0,4.9,52,0.00,,,0.00,WUHU216HW,2013-03-27 23:25:00,
2013-03-27 19:30:00,42.6,26.2,30.53,North,0,0.0,0.0,52,0.00,,,0.00,WUHU216HW,2013-03-27 23:30:00,
2013-03-27 19:35:00,42.6,26.2,30.53,West,270,0.0,0.0,52,0.00,,,0.00,WUHU216HW,2013-03-27 23:35:00,
2013-03-27 19:40:00,42.4,26.4,30.53,WNW,293,0.0,0.0,53,0.00,,,0.00,WUHU216HW,2013-03-27 23:40:00,
2013-03-27 19:45:00,42.0,26.1,30.54,NW,315,0.0,0.0,53,0.00,,,0.00,WUHU216HW,2013-03-27 23:45:00,
2013-03-27 19:50:00,41.9,25.9,30.53,WNW,293,0.0,0.0,53,0.00,,,0.00,WUHU216HW,2013-03-27 23:50:00,
2013-03-27 19:55:00,41.7,25.7,30.53,NNW,338,0.0,0.0,53,0.00,,,0.00,WUHU216HW,2013-03-27 23:55:00,
2013-03-27 20:00:00,41.5,26.0,30.53,West,270,0.0,0.0,54,0.00,,,0.00,WUHU216HW,2013-03-28 00:00:00,
2013-03-27 20:05:00,41.3,25.8,30.53,North,0,2.6,2.6,54,0.00,,,0.00,WUHU216HW,2013-03-28 00:05:00,
2013-03-27 20:10:00,41.0,25.5,30.54,WSW,248,0.0,2.6,54,0.00,,,0.00,WUHU216HW,2013-03-28 00:10:00,
2013-03-27 20:15:00,40.8,25.7,30.54,SW,225,0.0,0.0,55,0.00,,,0.00,WUHU216HW,2013-03-28 00:15:00,
2013-03-27 20:20:00,40.8,25.7,30.54,North,0,0.0,0.0,55,0.00,,,0.00,WUHU216HW,2013-03-28 00:20:00,
2013-03-27 20:25:00,40.6,25.6,30.54,NW,315,0.0,0.0,55,0.00,,,0.00,WUHU216HW,2013-03-28 00:25:00,
2013-03-27 20:30:00,40.4,25.4,30.54,SW,225,0.0,0.0,55,0.00,,,0.00,WUHU216HW,2013-03-28 00:30:00,
2013-03-27 20:35:00,40.2,25.2,30.54,NW,315,0.0,0.0,55,0.00,,,0.00,WUHU216HW,2013-03-28 00:35:00,
2013-03-27 20:40:00,40.1,25.1,30.54,WNW,293,0.0,0.0,55,0.00,,,0.00,WUHU216HW,2013-03-28 00:40:00,
2013-03-27 20:45:00,39.9,25.3,30.54,WSW,248,0.0,0.0,56,0.00,,,0.00,WUHU216HW,2013-03-28 00:45:00,
2013-03-27 20:50:00,39.7,25.1,30.54,West,270,0.0,0.0,56,0.00,,,0.00,WUHU216HW,2013-03-28 00:50:00,
2013-03-27 20:55:00,39.7,25.1,30.55,WSW,248,0.0,0.0,56,0.00,,,0.00,WUHU216HW,2013-03-28 00:55:00,
2013-03-27 21:00:00,39.3,25.2,30.55,WSW,248,0.0,0.0,57,0.00,,,0.00,WUHU216HW,2013-03-28 01:00:00,
2013-03-27 21:05:00,39.3,25.2,30.55,West,270,0.0,0.0,57,0.00,,,0.00,WUHU216HW,2013-03-28 01:05:00,
2013-03-27 21:10:00,39.0,24.9,30.54,SW,225,0.0,0.0,57,0.00,,,0.00,WUHU216HW,2013-03-28 01:10:00,
2013-03-27 21:15:00,39.0,24.9,30.55,West,270,0.0,0.0,57,0.00,,,0.00,WUHU216HW,2013-03-28 01:15:00,
2013-03-27 21:20:00,38.8,25.2,30.55,West,270,0.0,0.0,58,0.00,,,0.00,WUHU216HW,2013-03-28 01:20:00,
2013-03-27 21:25:00,38.4,24.9,30.55,West,270,0.0,0.0,58,0.00,,,0.00,WUHU216HW,2013-03-28 01:25:00,
2013-03-27 21:30:00,38.3,24.7,30.55,West,270,0.0,0.0,58,0.00,,,0.00,WUHU216HW,2013-03-28 01:30:00,
2013-03-27 21:35:00,38.1,24.5,30.55,West,270,0.0,0.0,58,0.00,,,0.00,WUHU216HW,2013-03-28 01:35:00,
2013-03-27 21:40:00,37.9,24.8,30.55,West,270,0.0,0.0,59,0.00,,,0.00,WUHU216HW,2013-03-28 01:40:00,
2013-03-27 21:45:00,37.7,24.2,30.55,West,270,0.0,0.0,58,0.00,,,0.00,WUHU216HW,2013-03-28 01:45:00,
2013-03-27 21:50:00,37.5,24.0,30.55,West,270,0.0,0.0,58,0.00,,,0.00,WUHU216HW,2013-03-28 01:50:00,
2013-03-27 21:55:00,37.2,24.2,30.55,West,270,0.0,0.0,59,0.00,,,0.00,WUHU216HW,2013-03-28 01:55:00,
2013-03-27 22:00:00,37.2,24.2,30.55,SW,225,0.0,0.0,59,0.00,,,0.00,WUHU216HW,2013-03-28 02:00:00,
2013-03-27 22:05:00,37.0,24.4,30.55,SW,225,0.0,0.0,60,0.00,,,0.00,WUHU216HW,2013-03-28 02:05:00,
2013-03-27 22:10:00,36.8,24.3,30.56,SW,225,0.0,0.0,60,0.00,,,0.00,WUHU216HW,2013-03-28 02:10:00,
2013-03-27 22:15:00,36.6,24.5,30.56,SW,225,0.0,0.0,61,0.00,,,0.00,WUHU216HW,2013-03-28 02:15:00,
2013-03-27 22:20:00,36.5,24.3,30.56,SW,225,0.0,0.0,61,0.00,,,0.00,WUHU216HW,2013-03-28 02:20:00,
2013-03-27 22:25:00,36.3,24.1,30.56,SW,225,0.0,0.0,61,0.00,,,0.00,WUHU216HW,2013-03-28 02:25:00,
2013-03-27 22:30:00,36.1,24.0,30.56,SW,225,0.0,0.0,61,0.00,,,0.00,WUHU216HW,2013-03-28 02:30:00,
2013-03-27 22:35:00,36.1,24.0,30.56,SW,225,0.0,0.0,61,0.00,,,0.00,WUHU216HW,2013-03-28 02:35:00,
2013-03-27 22:40:00,35.9,24.2,30.56,SW,225,0.0,0.0,61,0.00,,,0.00,WUHU216HW,2013-03-28 02:40:00,
2013-03-27 22:45:00,35.7,24.0,30.55,SW,225,0.0,0.0,62,0.00,,,0.00,WUHU216HW,2013-03-28 02:45:00,
2013-03-27 22:50:00,35.7,24.0,30.56,SW,225,0.0,0.0,62,0.00,,,0.00,WUHU216HW,2013-03-28 02:50:00,
2013-03-27 22:55:00,35.7,24.0,30.56,SW,225,0.0,0.0,62,0.00,,,0.00,WUHU216HW,2013-03-28 02:55:00,
2013-03-27 23:00:00,35.7,24.0,30.56,SW,225,0.0,0.0,62,0.00,,,0.00,WUHU216HW,2013-03-28 03:00:00,
2013-03-27 23:05:00,35.4,23.7,30.56,SW,225,0.0,0.0,62,0.00,,,0.00,WUHU216HW,2013-03-28 03:05:00,
2013-03-27 23:10:00,35.4,24.0,30.56,SW,225,0.0,0.0,63,0.00,,,0.00,WUHU216HW,2013-03-28 03:10:00,
2013-03-27 23:15:00,35.4,24.0,30.56,SW,225,0.0,0.0,63,0.00,,,0.00,WUHU216HW,2013-03-28 03:15:00,
2013-03-27 23:20:00,35.2,23.9,30.56,SW,225,0.0,0.0,63,0.00,,,0.00,WUHU216HW,2013-03-28 03:20:00,
2013-03-27 23:25:00,35.2,23.9,30.56,SW,225,0.0,0.0,63,0.00,,,0.00,WUHU216HW,2013-03-28 03:25:00,
2013-03-27 23:30:00,34.8,23.9,30.57,SW,225,0.0,0.0,64,0.00,,,0.00,WUHU216HW,2013-03-28 03:30:00,
2013-03-27 23:35:00,34.8,23.9,30.56,SW,225,0.0,0.0,64,0.00,,,0.00,WUHU216HW,2013-03-28 03:35:00,
2013-03-27 23:40:00,34.7,23.7,30.56,SW,225,0.0,0.0,64,0.00,,,0.00,WUHU216HW,2013-03-28 03:40:00,
2013-03-27 23:45:00,34.5,23.5,30.57,SW,225,0.0,0.0,64,0.00,,,0.00,WUHU216HW,2013-03-28 03:45:00,
2013-03-27 23:50:00,34.3,23.3,30.57,SW,225,0.0,0.0,64,0.00,,,0.00,WUHU216HW,2013-03-28 03:50:00,
2013-03-27 23:55:00,34.3,23.3,30.57,SW,225,0.0,1.1,64,0.00,,,0.00,WUHU216HW,2013-03-28 03:55:00,